Stevens Pass
Stevens Pass Ski Area - Tye Mill Chair, Skyline Chair
Latest observation 09/03 18:00 PDT
| Time (PDT) | Temp °F 5180' | Temp °F 5250' | RH % 5250' | Min mph 5180' | Spd mph 5180' | Gust mph 5180' | Dir ° 5180' |
|---|---|---|---|---|---|---|---|
| 09/03 18:00 | 42 | – | – | 0 | 6 | 14 | 257 |
| 09/03 17:00 | 43 | 45 | 87 | 1 | 7 | 13 | 260 |
| 09/03 16:00 | 45 | 46 | 86 | 0 | 3 | 11 | 275 |
| 09/03 15:00 | 46 | 48 | 74 | 0 | 2 | 7 | 271 |
| 09/03 14:00 | 46 | 47 | 79 | 0 | 3 | 9 | 255 |
| 09/03 13:00 | 48 | 48 | 71 | 0 | 0 | 3 | 26 |
| 09/03 12:00 | 48 | 50 | 64 | 0 | 1 | 4 | 284 |
| 09/03 11:00 | 47 | 46 | 73 | 0 | 1 | 5 | 289 |
| 09/03 10:00 | 43 | 43 | 77 | 0 | 1 | 4 | 301 |
| 09/03 09:00 | 41 | 42 | 82 | 0 | 1 | 6 | 288 |
| 09/03 08:00 | 40 | 41 | 87 | 0 | 1 | 5 | 297 |
| 09/03 07:00 | 38 | 38 | 87 | 0 | 2 | 6 | 280 |
| 09/03 06:00 | 38 | 38 | 85 | 0 | 5 | 10 | 282 |
| 09/03 05:00 | 38 | 38 | 87 | 0 | 1 | 8 | 303 |
| 09/03 04:00 | 38 | 38 | 89 | 0 | 1 | 7 | 280 |
| 09/03 03:00 | 37 | 37 | 89 | 0 | 1 | 6 | 287 |
| 09/03 02:00 | 38 | 37 | 90 | 0 | 2 | 8 | 296 |
| 09/03 01:00 | 37 | 38 | 91 | 0 | 4 | 14 | 284 |
| 09/03 00:00 | 39 | 39 | 93 | 0 | 4 | 15 | 287 |
| 09/02 23:00 | 39 | 39 | 93 | 0 | 7 | 22 | 290 |
| 09/02 22:00 | 40 | 40 | 93 | 0 | 3 | 10 | 285 |
| 09/02 21:00 | 42 | 42 | 94 | 0 | 3 | 20 | 264 |
| 09/02 20:00 | 44 | 44 | 86 | 0 | 4 | 11 | 109 |
| 09/02 19:00 | 44 | 44 | 88 | 0 | 6 | 17 | 164 |

